sensor_id;sensor_type;location;lat;lon;timestamp;P1;durP1;ratioP1;P2;durP2;ratioP2
9438;SDS011;5176;42.622;25.386;2023-06-26T00:01:40;6.75;;;4.90;;
9438;SDS011;5176;42.622;25.386;2023-06-26T00:04:07;9.60;;;5.18;;
9438;SDS011;5176;42.622;25.386;2023-06-26T00:06:39;6.97;;;4.93;;
9438;SDS011;5176;42.622;25.386;2023-06-26T00:09:07;5.95;;;5.45;;
9438;SDS011;5176;42.622;25.386;2023-06-26T00:11:34;11.32;;;5.85;;
9438;SDS011;5176;42.622;25.386;2023-06-26T00:14:01;7.95;;;5.60;;
9438;SDS011;5176;42.622;25.386;2023-06-26T00:16:30;11.02;;;5.82;;
9438;SDS011;5176;42.622;25.386;2023-06-26T00:18:57;8.00;;;5.97;;
9438;SDS011;5176;42.622;25.386;2023-06-26T00:21:25;6.00;;;5.40;;
9438;SDS011;5176;42.622;25.386;2023-06-26T00:23:52;8.88;;;5.38;;
9438;SDS011;5176;42.622;25.386;2023-06-26T00:26:19;5.65;;;5.15;;
9438;SDS011;5176;42.622;25.386;2023-06-26T00:28:47;5.38;;;4.50;;
9438;SDS011;5176;42.622;25.386;2023-06-26T00:31:14;7.13;;;4.65;;
9438;SDS011;5176;42.622;25.386;2023-06-26T00:33:42;7.10;;;4.93;;
9438;SDS011;5176;42.622;25.386;2023-06-26T00:36:10;6.22;;;4.97;;
9438;SDS011;5176;42.622;25.386;2023-06-26T00:38:37;8.57;;;4.88;;
9438;SDS011;5176;42.622;25.386;2023-06-26T00:41:04;5.80;;;4.78;;
9438;SDS011;5176;42.622;25.386;2023-06-26T00:43:37;6.70;;;4.40;;
9438;SDS011;5176;42.622;25.386;2023-06-26T00:46:05;5.90;;;3.92;;
9438;SDS011;5176;42.622;25.386;2023-06-26T00:48:36;5.15;;;3.42;;
9438;SDS011;5176;42.622;25.386;2023-06-26T00:51:05;5.18;;;3.17;;
9438;SDS011;5176;42.622;25.386;2023-06-26T00:53:33;2.72;;;2.47;;
9438;SDS011;5176;42.622;25.386;2023-06-26T00:56:00;4.15;;;2.45;;
9438;SDS011;5176;42.622;25.386;2023-06-26T00:58:28;3.38;;;2.78;;
9438;SDS011;5176;42.622;25.386;2023-06-26T01:00:56;6.15;;;2.58;;
9438;SDS011;5176;42.622;25.386;2023-06-26T01:03:23;5.22;;;3.13;;
9438;SDS011;5176;42.622;25.386;2023-06-26T01:05:52;4.75;;;2.70;;
9438;SDS011;5176;42.622;25.386;2023-06-26T01:08:24;3.22;;;2.80;;
9438;SDS011;5176;42.622;25.386;2023-06-26T01:10:53;4.18;;;2.90;;
9438;SDS011;5176;42.622;25.386;2023-06-26T01:13:21;2.63;;;2.42;;
9438;SDS011;5176;42.622;25.386;2023-06-26T01:15:49;3.20;;;2.63;;
9438;SDS011;5176;42.622;25.386;2023-06-26T01:18:18;2.60;;;2.40;;
9438;SDS011;5176;42.622;25.386;2023-06-26T01:20:45;4.55;;;2.25;;
9438;SDS011;5176;42.622;25.386;2023-06-26T01:23:14;3.38;;;2.65;;
9438;SDS011;5176;42.622;25.386;2023-06-26T01:25:53;4.07;;;3.00;;
9438;SDS011;5176;42.622;25.386;2023-06-26T01:28:29;2.70;;;2.47;;
9438;SDS011;5176;42.622;25.386;2023-06-26T01:30:58;5.35;;;2.97;;
9438;SDS011;5176;42.622;25.386;2023-06-26T01:33:26;3.30;;;2.75;;
9438;SDS011;5176;42.622;25.386;2023-06-26T01:35:54;3.25;;;2.65;;
9438;SDS011;5176;42.622;25.386;2023-06-26T01:38:22;4.07;;;2.45;;
9438;SDS011;5176;42.622;25.386;2023-06-26T01:40:49;5.80;;;2.90;;
9438;SDS011;5176;42.622;25.386;2023-06-26T01:43:18;3.67;;;3.03;;
9438;SDS011;5176;42.622;25.386;2023-06-26T01:45:54;2.80;;;2.60;;
9438;SDS011;5176;42.622;25.386;2023-06-26T01:48:25;3.13;;;2.90;;
9438;SDS011;5176;42.622;25.386;2023-06-26T01:50:59;3.40;;;3.10;;
9438;SDS011;5176;42.622;25.386;2023-06-26T01:53:27;4.35;;;3.17;;
9438;SDS011;5176;42.622;25.386;2023-06-26T01:55:59;3.17;;;2.83;;
9438;SDS011;5176;42.622;25.386;2023-06-26T01:58:33;3.75;;;3.08;;
9438;SDS011;5176;42.622;25.386;2023-06-26T02:01:03;4.38;;;3.40;;
9438;SDS011;5176;42.622;25.386;2023-06-26T02:03:30;4.03;;;3.00;;
9438;SDS011;5176;42.622;25.386;2023-06-26T02:05:57;4.90;;;3.00;;
9438;SDS011;5176;42.622;25.386;2023-06-26T02:08:25;3.30;;;3.00;;
9438;SDS011;5176;42.622;25.386;2023-06-26T02:10:52;4.07;;;3.30;;
9438;SDS011;5176;42.622;25.386;2023-06-26T02:13:19;7.78;;;3.63;;
9438;SDS011;5176;42.622;25.386;2023-06-26T02:15:46;3.65;;;3.35;;
9438;SDS011;5176;42.622;25.386;2023-06-26T02:18:15;3.60;;;3.25;;
9438;SDS011;5176;42.622;25.386;2023-06-26T02:20:43;3.28;;;2.97;;
9438;SDS011;5176;42.622;25.386;2023-06-26T02:23:10;4.68;;;3.05;;
9438;SDS011;5176;42.622;25.386;2023-06-26T02:25:38;5.63;;;3.15;;
9438;SDS011;5176;42.622;25.386;2023-06-26T02:28:05;4.55;;;3.25;;
9438;SDS011;5176;42.622;25.386;2023-06-26T02:30:32;5.15;;;3.47;;
9438;SDS011;5176;42.622;25.386;2023-06-26T02:32:59;3.85;;;3.45;;
9438;SDS011;5176;42.622;25.386;2023-06-26T02:35:28;3.47;;;3.17;;
9438;SDS011;5176;42.622;25.386;2023-06-26T02:37:55;3.80;;;3.47;;
9438;SDS011;5176;42.622;25.386;2023-06-26T02:40:22;5.22;;;3.10;;
9438;SDS011;5176;42.622;25.386;2023-06-26T02:42:50;3.97;;;3.25;;
9438;SDS011;5176;42.622;25.386;2023-06-26T02:45:17;4.78;;;3.30;;
9438;SDS011;5176;42.622;25.386;2023-06-26T02:47:44;7.45;;;4.07;;
9438;SDS011;5176;42.622;25.386;2023-06-26T02:50:11;4.68;;;3.90;;
9438;SDS011;5176;42.622;25.386;2023-06-26T02:52:40;5.93;;;4.43;;
9438;SDS011;5176;42.622;25.386;2023-06-26T02:55:07;8.68;;;4.43;;
9438;SDS011;5176;42.622;25.386;2023-06-26T02:57:35;5.10;;;4.60;;
9438;SDS011;5176;42.622;25.386;2023-06-26T03:00:02;5.07;;;4.53;;
9438;SDS011;5176;42.622;25.386;2023-06-26T03:02:32;6.03;;;4.63;;
9438;SDS011;5176;42.622;25.386;2023-06-26T03:04:59;5.47;;;4.68;;
9438;SDS011;5176;42.622;25.386;2023-06-26T03:07:27;7.20;;;5.18;;
9438;SDS011;5176;42.622;25.386;2023-06-26T03:09:56;7.32;;;4.78;;
9438;SDS011;5176;42.622;25.386;2023-06-26T03:12:24;7.68;;;5.18;;
9438;SDS011;5176;42.622;25.386;2023-06-26T03:14:52;10.30;;;4.63;;
9438;SDS011;5176;42.622;25.386;2023-06-26T03:17:19;6.90;;;4.93;;
9438;SDS011;5176;42.622;25.386;2023-06-26T03:19:46;7.93;;;4.93;;
9438;SDS011;5176;42.622;25.386;2023-06-26T03:22:13;5.88;;;5.03;;
9438;SDS011;5176;42.622;25.386;2023-06-26T03:24:41;7.45;;;5.18;;
9438;SDS011;5176;42.622;25.386;2023-06-26T03:27:09;6.05;;;4.82;;
9438;SDS011;5176;42.622;25.386;2023-06-26T03:29:37;8.48;;;5.13;;
9438;SDS011;5176;42.622;25.386;2023-06-26T03:32:04;6.45;;;5.00;;
9438;SDS011;5176;42.622;25.386;2023-06-26T03:34:32;6.63;;;4.90;;
9438;SDS011;5176;42.622;25.386;2023-06-26T03:36:59;5.38;;;4.80;;
9438;SDS011;5176;42.622;25.386;2023-06-26T03:39:27;6.93;;;5.00;;
9438;SDS011;5176;42.622;25.386;2023-06-26T03:41:54;7.50;;;5.00;;
9438;SDS011;5176;42.622;25.386;2023-06-26T03:44:27;10.38;;;4.90;;
9438;SDS011;5176;42.622;25.386;2023-06-26T03:46:54;5.35;;;4.95;;
9438;SDS011;5176;42.622;25.386;2023-06-26T03:49:21;7.00;;;4.63;;
9438;SDS011;5176;42.622;25.386;2023-06-26T03:51:48;8.05;;;5.15;;
9438;SDS011;5176;42.622;25.386;2023-06-26T03:54:16;6.90;;;4.80;;
9438;SDS011;5176;42.622;25.386;2023-06-26T03:56:43;9.43;;;5.03;;
9438;SDS011;5176;42.622;25.386;2023-06-26T03:59:10;6.00;;;4.50;;
9438;SDS011;5176;42.622;25.386;2023-06-26T04:01:39;6.78;;;4.63;;
9438;SDS011;5176;42.622;25.386;2023-06-26T04:04:06;7.28;;;4.70;;
9438;SDS011;5176;42.622;25.386;2023-06-26T04:06:33;6.13;;;4.57;;
9438;SDS011;5176;42.622;25.386;2023-06-26T04:09:00;6.07;;;5.03;;
9438;SDS011;5176;42.622;25.386;2023-06-26T04:11:28;6.07;;;4.65;;
9438;SDS011;5176;42.622;25.386;2023-06-26T04:13:56;7.93;;;4.93;;
9438;SDS011;5176;42.622;25.386;2023-06-26T04:16:23;7.40;;;4.43;;
9438;SDS011;5176;42.622;25.386;2023-06-26T04:18:52;5.43;;;4.88;;
9438;SDS011;5176;42.622;25.386;2023-06-26T04:21:21;8.20;;;4.90;;
9438;SDS011;5176;42.622;25.386;2023-06-26T04:23:50;8.48;;;5.20;;
9438;SDS011;5176;42.622;25.386;2023-06-26T04:26:17;7.07;;;5.18;;
9438;SDS011;5176;42.622;25.386;2023-06-26T04:28:45;11.85;;;5.43;;
9438;SDS011;5176;42.622;25.386;2023-06-26T04:31:12;6.57;;;4.72;;
9438;SDS011;5176;42.622;25.386;2023-06-26T04:33:39;6.35;;;4.50;;
9438;SDS011;5176;42.622;25.386;2023-06-26T04:36:08;5.05;;;4.38;;
9438;SDS011;5176;42.622;25.386;2023-06-26T04:38:36;6.35;;;4.53;;
9438;SDS011;5176;42.622;25.386;2023-06-26T04:41:03;6.68;;;3.58;;
9438;SDS011;5176;42.622;25.386;2023-06-26T04:43:31;4.10;;;3.70;;
9438;SDS011;5176;42.622;25.386;2023-06-26T04:45:58;5.03;;;4.00;;
9438;SDS011;5176;42.622;25.386;2023-06-26T04:48:26;3.63;;;3.33;;
9438;SDS011;5176;42.622;25.386;2023-06-26T04:50:54;7.55;;;3.60;;
9438;SDS011;5176;42.622;25.386;2023-06-26T04:53:23;5.82;;;3.88;;
9438;SDS011;5176;42.622;25.386;2023-06-26T04:55:50;3.47;;;3.17;;
9438;SDS011;5176;42.622;25.386;2023-06-26T04:58:18;3.50;;;3.20;;
9438;SDS011;5176;42.622;25.386;2023-06-26T05:00:46;6.00;;;3.40;;
9438;SDS011;5176;42.622;25.386;2023-06-26T05:03:14;7.70;;;3.78;;
9438;SDS011;5176;42.622;25.386;2023-06-26T05:05:43;4.78;;;3.65;;
9438;SDS011;5176;42.622;25.386;2023-06-26T05:08:14;8.25;;;4.07;;
9438;SDS011;5176;42.622;25.386;2023-06-26T05:10:44;4.97;;;3.40;;
9438;SDS011;5176;42.622;25.386;2023-06-26T05:13:12;5.35;;;3.42;;
9438;SDS011;5176;42.622;25.386;2023-06-26T05:15:42;4.53;;;3.30;;
9438;SDS011;5176;42.622;25.386;2023-06-26T05:18:10;4.78;;;3.47;;
9438;SDS011;5176;42.622;25.386;2023-06-26T05:20:38;6.18;;;4.00;;
9438;SDS011;5176;42.622;25.386;2023-06-26T05:23:05;5.97;;;3.45;;
9438;SDS011;5176;42.622;25.386;2023-06-26T05:25:33;3.97;;;2.92;;
9438;SDS011;5176;42.622;25.386;2023-06-26T05:28:02;5.13;;;3.28;;
9438;SDS011;5176;42.622;25.386;2023-06-26T05:30:31;4.43;;;3.42;;
9438;SDS011;5176;42.622;25.386;2023-06-26T05:33:01;9.85;;;4.95;;
9438;SDS011;5176;42.622;25.386;2023-06-26T05:35:29;6.78;;;4.38;;
9438;SDS011;5176;42.622;25.386;2023-06-26T05:37:57;4.93;;;3.70;;
9438;SDS011;5176;42.622;25.386;2023-06-26T05:40:25;4.65;;;3.58;;
9438;SDS011;5176;42.622;25.386;2023-06-26T05:42:53;3.10;;;2.90;;
9438;SDS011;5176;42.622;25.386;2023-06-26T05:45:22;4.95;;;3.60;;
9438;SDS011;5176;42.622;25.386;2023-06-26T05:47:49;5.85;;;3.33;;
9438;SDS011;5176;42.622;25.386;2023-06-26T05:50:17;5.18;;;3.47;;
9438;SDS011;5176;42.622;25.386;2023-06-26T05:52:46;4.25;;;3.40;;
9438;SDS011;5176;42.622;25.386;2023-06-26T05:55:13;7.38;;;3.08;;
9438;SDS011;5176;42.622;25.386;2023-06-26T05:57:41;4.47;;;3.58;;
9438;SDS011;5176;42.622;25.386;2023-06-26T06:00:10;5.18;;;3.20;;
9438;SDS011;5176;42.622;25.386;2023-06-26T06:02:40;3.45;;;3.05;;
9438;SDS011;5176;42.622;25.386;2023-06-26T06:05:08;4.63;;;3.20;;
9438;SDS011;5176;42.622;25.386;2023-06-26T06:07:36;3.42;;;2.85;;
9438;SDS011;5176;42.622;25.386;2023-06-26T06:10:03;3.20;;;2.90;;
9438;SDS011;5176;42.622;25.386;2023-06-26T06:12:31;3.75;;;3.25;;
9438;SDS011;5176;42.622;25.386;2023-06-26T06:14:59;3.92;;;2.55;;
9438;SDS011;5176;42.622;25.386;2023-06-26T06:17:26;4.07;;;2.75;;
9438;SDS011;5176;42.622;25.386;2023-06-26T06:19:55;4.75;;;3.05;;
9438;SDS011;5176;42.622;25.386;2023-06-26T06:22:23;4.25;;;2.83;;
9438;SDS011;5176;42.622;25.386;2023-06-26T06:24:51;6.35;;;2.95;;
9438;SDS011;5176;42.622;25.386;2023-06-26T06:27:18;5.63;;;3.88;;
9438;SDS011;5176;42.622;25.386;2023-06-26T06:29:45;4.00;;;3.40;;
9438;SDS011;5176;42.622;25.386;2023-06-26T06:32:12;4.93;;;4.03;;
9438;SDS011;5176;42.622;25.386;2023-06-26T06:34:40;4.53;;;4.13;;
9438;SDS011;5176;42.622;25.386;2023-06-26T06:37:08;5.68;;;4.38;;
9438;SDS011;5176;42.622;25.386;2023-06-26T06:39:36;6.20;;;4.18;;
9438;SDS011;5176;42.622;25.386;2023-06-26T06:42:03;10.23;;;4.78;;
9438;SDS011;5176;42.622;25.386;2023-06-26T06:44:31;7.90;;;4.50;;
9438;SDS011;5176;42.622;25.386;2023-06-26T06:46:58;7.60;;;5.10;;
9438;SDS011;5176;42.622;25.386;2023-06-26T06:49:26;7.05;;;4.65;;
9438;SDS011;5176;42.622;25.386;2023-06-26T06:51:53;8.65;;;4.85;;
9438;SDS011;5176;42.622;25.386;2023-06-26T06:54:25;6.82;;;4.68;;
9438;SDS011;5176;42.622;25.386;2023-06-26T06:56:53;7.25;;;4.93;;
9438;SDS011;5176;42.622;25.386;2023-06-26T06:59:20;6.00;;;4.57;;
9438;SDS011;5176;42.622;25.386;2023-06-26T07:01:47;7.22;;;4.82;;
9438;SDS011;5176;42.622;25.386;2023-06-26T07:04:14;8.35;;;5.43;;
9438;SDS011;5176;42.622;25.386;2023-06-26T07:06:42;8.27;;;4.70;;
9438;SDS011;5176;42.622;25.386;2023-06-26T07:09:09;6.22;;;5.28;;
9438;SDS011;5176;42.622;25.386;2023-06-26T07:11:38;9.98;;;5.07;;
9438;SDS011;5176;42.622;25.386;2023-06-26T07:14:05;5.20;;;4.70;;
9438;SDS011;5176;42.622;25.386;2023-06-26T07:16:33;6.43;;;4.90;;
9438;SDS011;5176;42.622;25.386;2023-06-26T07:19:00;7.43;;;5.70;;
9438;SDS011;5176;42.622;25.386;2023-06-26T07:21:27;8.43;;;5.65;;
9438;SDS011;5176;42.622;25.386;2023-06-26T07:23:55;7.72;;;6.03;;
9438;SDS011;5176;42.622;25.386;2023-06-26T07:26:22;7.55;;;6.38;;
9438;SDS011;5176;42.622;25.386;2023-06-26T07:28:51;9.23;;;5.55;;
9438;SDS011;5176;42.622;25.386;2023-06-26T07:31:20;6.57;;;5.00;;
9438;SDS011;5176;42.622;25.386;2023-06-26T07:33:47;6.45;;;5.47;;
9438;SDS011;5176;42.622;25.386;2023-06-26T07:36:14;7.28;;;5.15;;
9438;SDS011;5176;42.622;25.386;2023-06-26T07:38:42;6.50;;;5.72;;
9438;SDS011;5176;42.622;25.386;2023-06-26T07:41:09;7.28;;;6.10;;
9438;SDS011;5176;42.622;25.386;2023-06-26T07:43:37;5.93;;;5.38;;
9438;SDS011;5176;42.622;25.386;2023-06-26T07:46:05;7.53;;;5.55;;
9438;SDS011;5176;42.622;25.386;2023-06-26T07:48:32;7.10;;;5.80;;
9438;SDS011;5176;42.622;25.386;2023-06-26T07:51:00;6.60;;;4.97;;
9438;SDS011;5176;42.622;25.386;2023-06-26T07:53:27;6.30;;;5.47;;
9438;SDS011;5176;42.622;25.386;2023-06-26T07:55:54;4.82;;;4.43;;
9438;SDS011;5176;42.622;25.386;2023-06-26T07:58:22;6.40;;;4.70;;
9438;SDS011;5176;42.622;25.386;2023-06-26T08:00:51;5.93;;;4.10;;
9438;SDS011;5176;42.622;25.386;2023-06-26T08:03:19;6.30;;;3.50;;
9438;SDS011;5176;42.622;25.386;2023-06-26T08:05:47;4.03;;;2.90;;
9438;SDS011;5176;42.622;25.386;2023-06-26T08:08:14;2.38;;;2.17;;
9438;SDS011;5176;42.622;25.386;2023-06-26T08:10:41;1.83;;;1.70;;
9438;SDS011;5176;42.622;25.386;2023-06-26T08:13:08;2.42;;;1.55;;
9438;SDS011;5176;42.622;25.386;2023-06-26T08:15:36;5.50;;;1.70;;
9438;SDS011;5176;42.622;25.386;2023-06-26T08:18:04;2.50;;;1.60;;
9438;SDS011;5176;42.622;25.386;2023-06-26T08:20:33;1.50;;;1.40;;
9438;SDS011;5176;42.622;25.386;2023-06-26T08:23:01;1.67;;;1.50;;
9438;SDS011;5176;42.622;25.386;2023-06-26T08:25:28;1.55;;;1.40;;
9438;SDS011;5176;42.622;25.386;2023-06-26T08:27:57;1.52;;;1.40;;
9438;SDS011;5176;42.622;25.386;2023-06-26T08:30:24;1.45;;;1.40;;
9438;SDS011;5176;42.622;25.386;2023-06-26T08:32:53;1.85;;;1.20;;
9438;SDS011;5176;42.622;25.386;2023-06-26T08:35:21;1.33;;;1.30;;
9438;SDS011;5176;42.622;25.386;2023-06-26T08:37:50;1.33;;;1.20;;
9438;SDS011;5176;42.622;25.386;2023-06-26T08:40:19;1.75;;;1.52;;
9438;SDS011;5176;42.622;25.386;2023-06-26T08:42:48;2.85;;;1.42;;
9438;SDS011;5176;42.622;25.386;2023-06-26T08:45:18;1.50;;;1.40;;
9438;SDS011;5176;42.622;25.386;2023-06-26T08:47:46;1.20;;;1.20;;
9438;SDS011;5176;42.622;25.386;2023-06-26T08:50:18;1.60;;;1.50;;
9438;SDS011;5176;42.622;25.386;2023-06-26T08:52:53;1.58;;;1.48;;
9438;SDS011;5176;42.622;25.386;2023-06-26T08:55:23;1.65;;;1.55;;
9438;SDS011;5176;42.622;25.386;2023-06-26T08:57:55;1.85;;;1.60;;
9438;SDS011;5176;42.622;25.386;2023-06-26T09:00:22;1.73;;;1.63;;
9438;SDS011;5176;42.622;25.386;2023-06-26T09:02:50;1.88;;;1.77;;
9438;SDS011;5176;42.622;25.386;2023-06-26T09:05:17;1.80;;;1.70;;
9438;SDS011;5176;42.622;25.386;2023-06-26T09:07:45;1.98;;;1.88;;
9438;SDS011;5176;42.622;25.386;2023-06-26T09:10:14;2.28;;;2.00;;
9438;SDS011;5176;42.622;25.386;2023-06-26T09:12:42;2.58;;;1.85;;
9438;SDS011;5176;42.622;25.386;2023-06-26T09:15:14;2.53;;;2.33;;
9438;SDS011;5176;42.622;25.386;2023-06-26T09:17:42;2.05;;;1.95;;
9438;SDS011;5176;42.622;25.386;2023-06-26T09:20:09;2.20;;;2.03;;
9438;SDS011;5176;42.622;25.386;2023-06-26T09:22:37;3.10;;;2.50;;
9438;SDS011;5176;42.622;25.386;2023-06-26T09:25:05;2.53;;;2.33;;
9438;SDS011;5176;42.622;25.386;2023-06-26T09:27:35;2.63;;;2.20;;
9438;SDS011;5176;42.622;25.386;2023-06-26T09:30:03;4.00;;;2.42;;
9438;SDS011;5176;42.622;25.386;2023-06-26T09:32:33;3.63;;;2.55;;
9438;SDS011;5176;42.622;25.386;2023-06-26T09:35:02;2.42;;;2.22;;
9438;SDS011;5176;42.622;25.386;2023-06-26T09:37:30;3.20;;;2.47;;
9438;SDS011;5176;42.622;25.386;2023-06-26T09:39:58;2.53;;;2.25;;
9438;SDS011;5176;42.622;25.386;2023-06-26T09:42:25;2.55;;;2.35;;
9438;SDS011;5176;42.622;25.386;2023-06-26T09:44:54;2.97;;;2.72;;
9438;SDS011;5176;42.622;25.386;2023-06-26T09:47:21;6.18;;;2.92;;
9438;SDS011;5176;42.622;25.386;2023-06-26T09:49:49;2.63;;;2.40;;
9438;SDS011;5176;42.622;25.386;2023-06-26T09:52:18;2.22;;;2.03;;
9438;SDS011;5176;42.622;25.386;2023-06-26T09:54:45;2.42;;;2.22;;
9438;SDS011;5176;42.622;25.386;2023-06-26T09:57:13;3.08;;;2.17;;
9438;SDS011;5176;42.622;25.386;2023-06-26T09:59:42;2.20;;;2.00;;
9438;SDS011;5176;42.622;25.386;2023-06-26T10:02:12;2.65;;;2.45;;
9438;SDS011;5176;42.622;25.386;2023-06-26T10:04:39;2.55;;;2.20;;
9438;SDS011;5176;42.622;25.386;2023-06-26T10:07:08;2.85;;;2.50;;
9438;SDS011;5176;42.622;25.386;2023-06-26T10:09:40;3.30;;;2.13;;
9438;SDS011;5176;42.622;25.386;2023-06-26T10:12:11;4.45;;;2.40;;
9438;SDS011;5176;42.622;25.386;2023-06-26T10:14:43;2.90;;;2.70;;
9438;SDS011;5176;42.622;25.386;2023-06-26T10:17:15;2.22;;;2.03;;
9438;SDS011;5176;42.622;25.386;2023-06-26T10:19:45;3.45;;;2.92;;
9438;SDS011;5176;42.622;25.386;2023-06-26T10:22:15;3.33;;;2.85;;
9438;SDS011;5176;42.622;25.386;2023-06-26T10:24:43;3.08;;;2.47;;
9438;SDS011;5176;42.622;25.386;2023-06-26T10:27:13;2.45;;;2.10;;
9438;SDS011;5176;42.622;25.386;2023-06-26T10:29:43;2.13;;;2.03;;
9438;SDS011;5176;42.622;25.386;2023-06-26T10:32:14;2.13;;;2.03;;
9438;SDS011;5176;42.622;25.386;2023-06-26T10:34:42;2.50;;;2.30;;
9438;SDS011;5176;42.622;25.386;2023-06-26T10:37:11;2.30;;;2.20;;
9438;SDS011;5176;42.622;25.386;2023-06-26T10:39:48;2.35;;;2.25;;
9438;SDS011;5176;42.622;25.386;2023-06-26T10:42:16;2.88;;;2.30;;
9438;SDS011;5176;42.622;25.386;2023-06-26T10:44:46;3.15;;;2.70;;
9438;SDS011;5176;42.622;25.386;2023-06-26T10:50:22;3.15;;;2.85;;
9438;SDS011;5176;42.622;25.386;2023-06-26T10:55:47;3.80;;;3.10;;
9438;SDS011;5176;42.622;25.386;2023-06-26T10:58:32;3.53;;;3.22;;
9438;SDS011;5176;42.622;25.386;2023-06-26T11:01:23;3.28;;;2.97;;
9438;SDS011;5176;42.622;25.386;2023-06-26T11:04:00;3.30;;;3.00;;
9438;SDS011;5176;42.622;25.386;2023-06-26T11:06:32;5.05;;;3.20;;
9438;SDS011;5176;42.622;25.386;2023-06-26T11:09:01;4.63;;;4.03;;
9438;SDS011;5176;42.622;25.386;2023-06-26T11:14:24;4.03;;;3.60;;
9438;SDS011;5176;42.622;25.386;2023-06-26T11:16:52;3.85;;;3.55;;
9438;SDS011;5176;42.622;25.386;2023-06-26T11:19:22;4.00;;;3.70;;
9438;SDS011;5176;42.622;25.386;2023-06-26T11:21:53;3.90;;;3.60;;
9438;SDS011;5176;42.622;25.386;2023-06-26T11:24:25;5.13;;;4.55;;
9438;SDS011;5176;42.622;25.386;2023-06-26T11:26:53;4.22;;;3.92;;
9438;SDS011;5176;42.622;25.386;2023-06-26T11:29:21;4.40;;;4.00;;
9438;SDS011;5176;42.622;25.386;2023-06-26T11:31:48;5.95;;;3.95;;
9438;SDS011;5176;42.622;25.386;2023-06-26T11:34:28;4.38;;;4.07;;
9438;SDS011;5176;42.622;25.386;2023-06-26T11:36:58;4.45;;;3.90;;
9438;SDS011;5176;42.622;25.386;2023-06-26T11:39:29;4.38;;;3.95;;
9438;SDS011;5176;42.622;25.386;2023-06-26T11:41:57;4.97;;;4.32;;
9438;SDS011;5176;42.622;25.386;2023-06-26T11:44:29;4.85;;;3.85;;
9438;SDS011;5176;42.622;25.386;2023-06-26T11:46:57;4.25;;;3.88;;
9438;SDS011;5176;42.622;25.386;2023-06-26T11:49:24;5.20;;;4.07;;
9438;SDS011;5176;42.622;25.386;2023-06-26T11:51:52;4.18;;;3.53;;
9438;SDS011;5176;42.622;25.386;2023-06-26T11:54:25;6.85;;;4.32;;
9438;SDS011;5176;42.622;25.386;2023-06-26T11:56:57;4.45;;;4.10;;
9438;SDS011;5176;42.622;25.386;2023-06-26T11:59:32;5.80;;;4.50;;
9438;SDS011;5176;42.622;25.386;2023-06-26T12:02:04;4.65;;;4.25;;
9438;SDS011;5176;42.622;25.386;2023-06-26T12:04:32;5.07;;;4.57;;
9438;SDS011;5176;42.622;25.386;2023-06-26T12:07:00;8.82;;;4.60;;
9438;SDS011;5176;42.622;25.386;2023-06-26T12:09:34;7.20;;;4.97;;
9438;SDS011;5176;42.622;25.386;2023-06-26T12:12:04;5.20;;;4.80;;
9438;SDS011;5176;42.622;25.386;2023-06-26T12:14:32;5.43;;;4.53;;
9438;SDS011;5176;42.622;25.386;2023-06-26T12:17:07;5.07;;;4.57;;
9438;SDS011;5176;42.622;25.386;2023-06-26T12:19:37;7.13;;;4.72;;
9438;SDS011;5176;42.622;25.386;2023-06-26T12:22:08;6.00;;;4.72;;
9438;SDS011;5176;42.622;25.386;2023-06-26T12:24:37;5.57;;;4.93;;
9438;SDS011;5176;42.622;25.386;2023-06-26T12:27:09;4.57;;;4.18;;
9438;SDS011;5176;42.622;25.386;2023-06-26T12:29:38;4.97;;;4.50;;
9438;SDS011;5176;42.622;25.386;2023-06-26T12:32:08;4.85;;;4.45;;
9438;SDS011;5176;42.622;25.386;2023-06-26T12:34:36;7.22;;;4.60;;
9438;SDS011;5176;42.622;25.386;2023-06-26T12:37:05;6.05;;;4.43;;
9438;SDS011;5176;42.622;25.386;2023-06-26T12:39:46;8.13;;;5.07;;
9438;SDS011;5176;42.622;25.386;2023-06-26T12:42:18;5.18;;;4.18;;
9438;SDS011;5176;42.622;25.386;2023-06-26T12:44:46;4.97;;;4.35;;
9438;SDS011;5176;42.622;25.386;2023-06-26T12:47:14;4.55;;;4.10;;
9438;SDS011;5176;42.622;25.386;2023-06-26T12:49:43;4.32;;;3.92;;
9438;SDS011;5176;42.622;25.386;2023-06-26T12:52:12;4.53;;;3.70;;
9438;SDS011;5176;42.622;25.386;2023-06-26T12:54:43;5.72;;;3.70;;
9438;SDS011;5176;42.622;25.386;2023-06-26T12:57:13;5.07;;;4.00;;
9438;SDS011;5176;42.622;25.386;2023-06-26T12:59:41;4.43;;;4.03;;
9438;SDS011;5176;42.622;25.386;2023-06-26T13:02:08;4.50;;;3.95;;
9438;SDS011;5176;42.622;25.386;2023-06-26T13:04:37;4.93;;;3.80;;
9438;SDS011;5176;42.622;25.386;2023-06-26T13:07:06;4.57;;;4.10;;
9438;SDS011;5176;42.622;25.386;2023-06-26T13:09:34;6.15;;;4.10;;
9438;SDS011;5176;42.622;25.386;2023-06-26T13:12:02;5.85;;;4.18;;
9438;SDS011;5176;42.622;25.386;2023-06-26T13:14:31;5.88;;;4.00;;
9438;SDS011;5176;42.622;25.386;2023-06-26T13:17:00;5.07;;;3.80;;
9438;SDS011;5176;42.622;25.386;2023-06-26T13:19:27;6.63;;;4.50;;
9438;SDS011;5176;42.622;25.386;2023-06-26T13:21:55;5.47;;;4.03;;
9438;SDS011;5176;42.622;25.386;2023-06-26T13:24:22;5.45;;;3.85;;
9438;SDS011;5176;42.622;25.386;2023-06-26T13:26:50;6.47;;;4.00;;
9438;SDS011;5176;42.622;25.386;2023-06-26T13:29:17;5.63;;;4.30;;
9438;SDS011;5176;42.622;25.386;2023-06-26T13:31:46;6.25;;;4.45;;
9438;SDS011;5176;42.622;25.386;2023-06-26T13:34:19;5.63;;;4.50;;
9438;SDS011;5176;42.622;25.386;2023-06-26T13:36:48;5.70;;;4.15;;
9438;SDS011;5176;42.622;25.386;2023-06-26T13:39:15;4.45;;;3.72;;
9438;SDS011;5176;42.622;25.386;2023-06-26T13:41:43;4.43;;;4.03;;
9438;SDS011;5176;42.622;25.386;2023-06-26T13:44:10;4.18;;;3.80;;
9438;SDS011;5176;42.622;25.386;2023-06-26T13:46:37;5.18;;;4.30;;
9438;SDS011;5176;42.622;25.386;2023-06-26T13:49:06;4.80;;;4.20;;
9438;SDS011;5176;42.622;25.386;2023-06-26T13:51:33;4.15;;;3.75;;
9438;SDS011;5176;42.622;25.386;2023-06-26T13:54:01;5.47;;;4.22;;
9438;SDS011;5176;42.622;25.386;2023-06-26T13:56:28;5.88;;;3.95;;
9438;SDS011;5176;42.622;25.386;2023-06-26T13:58:56;5.35;;;3.92;;
9438;SDS011;5176;42.622;25.386;2023-06-26T14:01:24;5.07;;;4.25;;
9438;SDS011;5176;42.622;25.386;2023-06-26T14:03:51;5.30;;;4.80;;
9438;SDS011;5176;42.622;25.386;2023-06-26T14:06:20;5.30;;;4.00;;
9438;SDS011;5176;42.622;25.386;2023-06-26T14:08:47;5.80;;;3.85;;
9438;SDS011;5176;42.622;25.386;2023-06-26T14:11:15;5.03;;;3.75;;
9438;SDS011;5176;42.622;25.386;2023-06-26T14:13:43;4.22;;;3.83;;
9438;SDS011;5176;42.622;25.386;2023-06-26T14:16:11;4.13;;;3.72;;
9438;SDS011;5176;42.622;25.386;2023-06-26T14:18:38;4.72;;;3.80;;
9438;SDS011;5176;42.622;25.386;2023-06-26T14:21:05;5.07;;;3.13;;
9438;SDS011;5176;42.622;25.386;2023-06-26T14:23:34;4.85;;;3.60;;
9438;SDS011;5176;42.622;25.386;2023-06-26T14:26:02;3.75;;;3.35;;
9438;SDS011;5176;42.622;25.386;2023-06-26T14:28:29;6.13;;;3.80;;
9438;SDS011;5176;42.622;25.386;2023-06-26T14:30:56;6.05;;;3.78;;
9438;SDS011;5176;42.622;25.386;2023-06-26T14:33:24;4.10;;;3.35;;
9438;SDS011;5176;42.622;25.386;2023-06-26T14:35:51;6.40;;;3.85;;
9438;SDS011;5176;42.622;25.386;2023-06-26T14:38:19;4.35;;;3.70;;
9438;SDS011;5176;42.622;25.386;2023-06-26T14:40:48;4.30;;;3.42;;
9438;SDS011;5176;42.622;25.386;2023-06-26T14:43:15;4.07;;;3.42;;
9438;SDS011;5176;42.622;25.386;2023-06-26T14:45:42;5.18;;;3.60;;
9438;SDS011;5176;42.622;25.386;2023-06-26T14:48:10;5.45;;;3.13;;
9438;SDS011;5176;42.622;25.386;2023-06-26T14:50:37;2.67;;;1.98;;
9438;SDS011;5176;42.622;25.386;2023-06-26T14:53:05;1.00;;;1.00;;
9438;SDS011;5176;42.622;25.386;2023-06-26T14:55:32;0.90;;;0.90;;
9438;SDS011;5176;42.622;25.386;2023-06-26T14:58:01;1.20;;;1.20;;
9438;SDS011;5176;42.622;25.386;2023-06-26T15:00:28;1.00;;;1.00;;
9438;SDS011;5176;42.622;25.386;2023-06-26T15:02:56;2.67;;;0.85;;
9438;SDS011;5176;42.622;25.386;2023-06-26T15:05:23;0.80;;;0.80;;
9438;SDS011;5176;42.622;25.386;2023-06-26T15:07:51;1.00;;;1.00;;
9438;SDS011;5176;42.622;25.386;2023-06-26T15:10:19;0.93;;;0.93;;
9438;SDS011;5176;42.622;25.386;2023-06-26T15:12:46;1.05;;;0.98;;
9438;SDS011;5176;42.622;25.386;2023-06-26T15:15:15;2.03;;;0.93;;
9438;SDS011;5176;42.622;25.386;2023-06-26T15:17:43;1.15;;;1.00;;